Time;durP1;ratioP1;P1;durP2;ratioP2;P2;SDS_P1;SDS_P2;PMS_P1;PMS_P2;Temp;Humidity;BMP_temperature;BMP_pressure;BME280_temperature;BME280_humidity;BME280_pressure;Samples;Min_cycle;Max_cycle;Signal;HPM_P1;HPM_P2
2022/03/08 00:02:14;;;;;;;9.43;5.43;;;;;;;;;;5096583;28;20636;-64
2022/03/08 00:04:40;;;;;;;9.13;5.50;;;;;;;;;;5096455;28;20160;-64
2022/03/08 00:07:07;;;;;;;9.95;5.43;;;;;;;;;;5096600;28;20189;-64
2022/03/08 00:09:33;;;;;;;11.25;5.75;;;;;;;;;;5096594;28;20195;-64
2022/03/08 00:11:59;;;;;;;8.45;5.05;;;;;;;;;;5096860;28;20174;-65
2022/03/08 00:14:25;;;;;;;10.65;5.57;;;;;;;;;;5096712;28;20480;-65
2022/03/08 00:16:51;;;;;;;11.75;6.00;;;;;;;;;;5096454;28;20171;-65
2022/03/08 00:19:17;;;;;;;7.88;4.93;;;;;;;;;;5096222;28;20577;-65
2022/03/08 00:21:42;;;;;;;9.05;5.88;;;;;;;;;;5096387;28;20251;-65
2022/03/08 00:24:08;;;;;;;11.73;6.20;;;;;;;;;;5096323;28;20592;-64
2022/03/08 00:26:35;;;;;;;9.32;6.00;;;;;;;;;;5096146;28;20170;-65
2022/03/08 00:29:00;;;;;;;12.73;6.60;;;;;;;;;;5095878;28;20191;-65
2022/03/08 00:31:26;;;;;;;12.30;6.00;;;;;;;;;;5095986;28;20220;-65
2022/03/08 00:33:52;;;;;;;9.45;5.82;;;;;;;;;;5096054;28;20297;-65
2022/03/08 00:36:18;;;;;;;13.23;6.07;;;;;;;;;;5096014;28;20163;-65
2022/03/08 00:38:44;;;;;;;11.63;6.35;;;;;;;;;;5095889;28;20594;-65
2022/03/08 00:41:10;;;;;;;12.93;6.65;;;;;;;;;;5096143;28;20197;-65
2022/03/08 00:43:36;;;;;;;12.02;7.35;;;;;;;;;;5095874;28;20182;-65
2022/03/08 00:46:03;;;;;;;11.55;6.43;;;;;;;;;;5095908;28;20631;-65
2022/03/08 00:48:29;;;;;;;11.98;6.82;;;;;;;;;;5095691;28;20198;-65
2022/03/08 00:50:55;;;;;;;12.32;7.03;;;;;;;;;;5095791;28;20489;-65
2022/03/08 00:53:21;;;;;;;13.25;7.35;;;;;;;;;;5095606;28;20160;-65
2022/03/08 00:55:46;;;;;;;12.07;6.60;;;;;;;;;;5095785;28;20595;-65
2022/03/08 00:58:12;;;;;;;14.00;6.90;;;;;;;;;;5095475;28;20614;-65
2022/03/08 01:00:40;;;;;;;14.05;7.40;;;;;;;;;;5094857;28;20181;-65
2022/03/08 01:03:06;;;;;;;12.98;7.25;;;;;;;;;;5094298;28;20156;-65
2022/03/08 01:05:32;;;;;;;14.98;7.45;;;;;;;;;;5094341;28;20241;-65
2022/03/08 01:08:00;;;;;;;14.05;7.25;;;;;;;;;;5094600;28;20170;-65
2022/03/08 01:10:27;;;;;;;13.48;7.53;;;;;;;;;;5094190;28;20482;-65
2022/03/08 01:12:54;;;;;;;13.43;7.00;;;;;;;;;;5094188;28;20176;-64
2022/03/08 01:15:20;;;;;;;12.77;7.30;;;;;;;;;;5093984;28;20163;-64
2022/03/08 01:17:47;;;;;;;13.57;6.72;;;;;;;;;;5094142;28;20602;-64
2022/03/08 01:20:13;;;;;;;13.15;7.18;;;;;;;;;;5094269;28;20167;-64
2022/03/08 01:22:39;;;;;;;13.32;7.07;;;;;;;;;;5094019;28;20167;-64
2022/03/08 01:25:05;;;;;;;13.95;7.32;;;;;;;;;;5094031;28;20155;-64
2022/03/08 01:27:31;;;;;;;14.20;7.15;;;;;;;;;;5094274;28;20179;-64
2022/03/08 01:29:57;;;;;;;14.18;6.68;;;;;;;;;;5093798;28;20195;-65
2022/03/08 01:32:23;;;;;;;12.00;6.50;;;;;;;;;;5093966;28;20181;-65
2022/03/08 01:34:49;;;;;;;13.07;6.65;;;;;;;;;;5093710;28;20293;-65
2022/03/08 01:37:15;;;;;;;13.65;7.50;;;;;;;;;;5094066;28;20221;-64
2022/03/08 01:39:41;;;;;;;12.60;7.07;;;;;;;;;;5093793;28;20168;-63
2022/03/08 01:42:11;;;;;;;13.00;6.75;;;;;;;;;;5094102;28;20167;-64
2022/03/08 01:44:40;;;;;;;14.05;6.68;;;;;;;;;;5093637;28;20168;-65
2022/03/08 01:47:06;;;;;;;11.68;6.15;;;;;;;;;;5093920;28;20195;-64
2022/03/08 01:49:32;;;;;;;11.75;6.20;;;;;;;;;;5093945;28;20252;-65
2022/03/08 01:51:58;;;;;;;15.70;7.30;;;;;;;;;;5093913;28;20178;-65
2022/03/08 01:54:24;;;;;;;12.57;7.38;;;;;;;;;;5092980;28;20172;-65
2022/03/08 01:56:50;;;;;;;13.65;6.65;;;;;;;;;;5093897;28;20163;-63
2022/03/08 01:59:16;;;;;;;11.02;6.13;;;;;;;;;;5093398;28;20178;-64
2022/03/08 02:01:41;;;;;;;14.40;7.03;;;;;;;;;;5058858;28;1007916;-65
2022/03/08 02:04:07;;;;;;;13.20;7.38;;;;;;;;;;5094042;28;20171;-64
2022/03/08 02:06:34;;;;;;;13.77;7.43;;;;;;;;;;5094283;28;20163;-64
2022/03/08 02:09:01;;;;;;;13.10;6.68;;;;;;;;;;5094311;28;20506;-65
2022/03/08 02:11:26;;;;;;;14.20;6.55;;;;;;;;;;5094090;28;20245;-65
2022/03/08 02:13:52;;;;;;;13.15;6.75;;;;;;;;;;5094122;28;20646;-65
2022/03/08 02:16:18;;;;;;;12.60;6.63;;;;;;;;;;5094144;28;20580;-65
2022/03/08 02:18:44;;;;;;;10.35;5.90;;;;;;;;;;5093930;28;20168;-65
2022/03/08 02:21:10;;;;;;;11.90;6.43;;;;;;;;;;5093881;28;20554;-65
2022/03/08 02:23:36;;;;;;;11.45;6.50;;;;;;;;;;5093977;28;20163;-65
2022/03/08 02:26:02;;;;;;;16.65;7.05;;;;;;;;;;5101367;28;20167;-65
2022/03/08 02:28:29;;;;;;;17.08;7.28;;;;;;;;;;5102282;28;20199;-64
2022/03/08 02:30:55;;;;;;;13.60;6.38;;;;;;;;;;5101553;28;20168;-65
2022/03/08 02:33:21;;;;;;;13.43;7.00;;;;;;;;;;5102105;28;20168;-65
2022/03/08 02:35:47;;;;;;;12.57;6.95;;;;;;;;;;5103600;28;20690;-65
2022/03/08 02:38:13;;;;;;;11.85;6.95;;;;;;;;;;5105119;28;20159;-65
2022/03/08 02:40:40;;;;;;;12.85;6.78;;;;;;;;;;5098759;28;20602;-65
2022/03/08 02:43:07;;;;;;;12.88;6.60;;;;;;;;;;5100560;28;20172;-65
2022/03/08 02:45:34;;;;;;;12.25;6.28;;;;;;;;;;5105930;28;20246;-64
2022/03/08 02:48:00;;;;;;;11.63;6.05;;;;;;;;;;5109329;28;20489;-64
2022/03/08 02:50:26;;;;;;;13.10;6.03;;;;;;;;;;5109123;28;20209;-64
2022/03/08 02:52:53;;;;;;;11.65;6.85;;;;;;;;;;5109257;28;20666;-64
2022/03/08 02:55:21;;;;;;;11.55;6.57;;;;;;;;;;5109261;28;20152;-64
2022/03/08 02:57:47;;;;;;;12.43;6.38;;;;;;;;;;5100561;28;20167;-64
2022/03/08 03:00:14;;;;;;;9.65;5.43;;;;;;;;;;5093530;28;20522;-64
2022/03/08 03:02:40;;;;;;;11.93;5.68;;;;;;;;;;5093508;28;20540;-64
2022/03/08 03:05:06;;;;;;;10.95;6.15;;;;;;;;;;5093390;28;20626;-64
2022/03/08 03:07:33;;;;;;;12.82;6.55;;;;;;;;;;5096039;28;20175;-64
2022/03/08 03:09:59;;;;;;;9.88;5.93;;;;;;;;;;5097742;28;20187;-64
2022/03/08 03:12:25;;;;;;;11.25;6.38;;;;;;;;;;5097539;28;20163;-64
2022/03/08 03:14:51;;;;;;;13.57;6.35;;;;;;;;;;5097393;28;20159;-64
2022/03/08 03:17:17;;;;;;;11.13;6.20;;;;;;;;;;5097435;28;20571;-64
2022/03/08 03:19:43;;;;;;;11.80;6.10;;;;;;;;;;5098114;28;20167;-63
2022/03/08 03:22:09;;;;;;;11.68;6.10;;;;;;;;;;5097764;28;20170;-63
2022/03/08 03:24:35;;;;;;;15.45;6.85;;;;;;;;;;5097481;28;20529;-64
2022/03/08 03:27:01;;;;;;;13.32;6.30;;;;;;;;;;5097403;28;20183;-64
2022/03/08 03:29:27;;;;;;;11.05;6.10;;;;;;;;;;5097224;28;20228;-63
2022/03/08 03:31:53;;;;;;;11.98;6.35;;;;;;;;;;5097291;28;20167;-63
2022/03/08 03:34:19;;;;;;;9.73;6.22;;;;;;;;;;5097522;28;20207;-63
2022/03/08 03:36:45;;;;;;;11.55;6.57;;;;;;;;;;5097444;28;20187;-63
2022/03/08 03:39:11;;;;;;;13.05;7.15;;;;;;;;;;5097104;28;20250;-63
2022/03/08 03:41:37;;;;;;;11.82;6.78;;;;;;;;;;5097638;28;20233;-64
2022/03/08 03:44:03;;;;;;;13.63;7.15;;;;;;;;;;5097112;28;20610;-64
2022/03/08 03:46:29;;;;;;;11.02;5.85;;;;;;;;;;5096911;28;20175;-64
2022/03/08 03:48:55;;;;;;;13.05;5.72;;;;;;;;;;5096840;28;20623;-64
2022/03/08 03:51:21;;;;;;;11.00;6.07;;;;;;;;;;5096846;28;20167;-64
2022/03/08 03:53:47;;;;;;;13.90;6.28;;;;;;;;;;5097219;28;20533;-63
2022/03/08 03:56:12;;;;;;;12.75;6.47;;;;;;;;;;5096743;28;20164;-63
2022/03/08 03:58:39;;;;;;;12.63;7.22;;;;;;;;;;5096919;28;20254;-63
2022/03/08 04:01:04;;;;;;;16.60;6.72;;;;;;;;;;5096605;28;20187;-64
2022/03/08 04:03:31;;;;;;;12.95;6.68;;;;;;;;;;5096527;28;20164;-64
2022/03/08 04:05:57;;;;;;;15.07;7.28;;;;;;;;;;5096442;28;20505;-64
2022/03/08 04:08:23;;;;;;;14.38;7.22;;;;;;;;;;5096590;28;20171;-64
2022/03/08 04:10:50;;;;;;;11.38;6.78;;;;;;;;;;5096800;28;20186;-64
2022/03/08 04:13:17;;;;;;;14.38;7.32;;;;;;;;;;5096584;28;20175;-63
2022/03/08 04:15:43;;;;;;;13.63;7.13;;;;;;;;;;5096403;28;20172;-64
2022/03/08 04:18:09;;;;;;;11.52;7.10;;;;;;;;;;5095964;28;20159;-64
2022/03/08 04:20:35;;;;;;;13.55;7.03;;;;;;;;;;5096071;28;20247;-64
2022/03/08 04:23:01;;;;;;;12.20;7.10;;;;;;;;;;5096200;28;20186;-64
2022/03/08 04:25:27;;;;;;;12.10;6.68;;;;;;;;;;5096078;28;20217;-64
2022/03/08 04:27:53;;;;;;;12.38;6.72;;;;;;;;;;5096179;28;20233;-64
2022/03/08 04:30:18;;;;;;;12.48;6.93;;;;;;;;;;5096001;28;20565;-64
2022/03/08 04:32:45;;;;;;;11.50;6.78;;;;;;;;;;5096150;28;20164;-64
2022/03/08 04:35:11;;;;;;;11.50;6.95;;;;;;;;;;5095779;28;20155;-64
2022/03/08 04:37:37;;;;;;;14.68;7.10;;;;;;;;;;5095764;28;20171;-64
2022/03/08 04:40:04;;;;;;;13.32;6.93;;;;;;;;;;5096052;28;20167;-64
2022/03/08 04:42:30;;;;;;;13.98;7.20;;;;;;;;;;5096086;28;20199;-64
2022/03/08 04:44:56;;;;;;;11.75;6.60;;;;;;;;;;5095698;28;20203;-63
2022/03/08 04:47:22;;;;;;;12.93;6.63;;;;;;;;;;5095475;28;20167;-65
2022/03/08 04:49:48;;;;;;;13.35;6.75;;;;;;;;;;5095430;28;20198;-64
2022/03/08 04:52:14;;;;;;;11.68;6.60;;;;;;;;;;5095390;28;20178;-65
2022/03/08 04:54:40;;;;;;;10.85;6.50;;;;;;;;;;5095519;28;20156;-65
2022/03/08 04:57:06;;;;;;;12.45;6.60;;;;;;;;;;5095437;28;20610;-64
2022/03/08 04:59:32;;;;;;;11.95;6.43;;;;;;;;;;5095352;28;20175;-65
2022/03/08 05:01:58;;;;;;;13.18;5.93;;;;;;;;;;5095201;28;20178;-64
2022/03/08 05:04:24;;;;;;;10.32;5.97;;;;;;;;;;5095725;28;20181;-64
2022/03/08 05:06:50;;;;;;;11.32;6.32;;;;;;;;;;5095736;28;20251;-64
2022/03/08 05:09:17;;;;;;;13.60;6.32;;;;;;;;;;5095293;28;20274;-63
2022/03/08 05:11:43;;;;;;;14.60;6.32;;;;;;;;;;5095119;28;20160;-64
2022/03/08 05:14:09;;;;;;;12.10;6.38;;;;;;;;;;5095422;28;20178;-64
2022/03/08 05:16:35;;;;;;;11.05;5.95;;;;;;;;;;5095269;28;20224;-64
2022/03/08 05:19:01;;;;;;;11.68;5.95;;;;;;;;;;5094914;28;20163;-63
2022/03/08 05:21:26;;;;;;;10.05;6.13;;;;;;;;;;5094769;28;20195;-64
2022/03/08 05:23:52;;;;;;;10.23;5.80;;;;;;;;;;5094889;28;20194;-64
2022/03/08 05:26:18;;;;;;;8.00;5.57;;;;;;;;;;5094903;28;20171;-64
2022/03/08 05:28:46;;;;;;;13.23;6.63;;;;;;;;;;5094840;28;20191;-65
2022/03/08 05:31:12;;;;;;;10.60;6.68;;;;;;;;;;5094190;28;20223;-65
2022/03/08 05:33:39;;;;;;;13.30;7.03;;;;;;;;;;5094778;28;20164;-65
2022/03/08 05:36:04;;;;;;;11.27;7.03;;;;;;;;;;5094897;28;20218;-65
2022/03/08 05:38:30;;;;;;;13.02;6.25;;;;;;;;;;5094703;28;20206;-65
2022/03/08 05:40:56;;;;;;;12.85;6.97;;;;;;;;;;5094976;28;20179;-61
2022/03/08 05:43:22;;;;;;;12.15;6.40;;;;;;;;;;5094515;28;20182;-62
2022/03/08 05:45:48;;;;;;;12.65;7.00;;;;;;;;;;5094516;28;20168;-62
2022/03/08 05:48:14;;;;;;;13.68;7.28;;;;;;;;;;5094621;28;20254;-61
2022/03/08 05:50:40;;;;;;;13.25;7.63;;;;;;;;;;5094377;28;20297;-61
2022/03/08 05:53:06;;;;;;;14.88;7.70;;;;;;;;;;5094785;28;20494;-61
2022/03/08 05:55:32;;;;;;;14.35;7.25;;;;;;;;;;5094270;28;20245;-61
2022/03/08 05:57:58;;;;;;;17.40;8.73;;;;;;;;;;5094280;28;20178;-61
2022/03/08 06:00:24;;;;;;;14.98;7.90;;;;;;;;;;5094413;28;20651;-61
2022/03/08 06:02:50;;;;;;;15.90;8.15;;;;;;;;;;5093976;28;20213;-61
2022/03/08 06:05:16;;;;;;;17.13;8.60;;;;;;;;;;5094267;28;20232;-61
2022/03/08 06:07:42;;;;;;;16.42;7.80;;;;;;;;;;5094516;28;20258;-62
2022/03/08 06:10:09;;;;;;;17.08;7.97;;;;;;;;;;5094230;28;20278;-61
2022/03/08 06:12:35;;;;;;;14.63;8.23;;;;;;;;;;5094531;28;20201;-61
2022/03/08 06:15:01;;;;;;;17.25;8.20;;;;;;;;;;5094168;28;20595;-61
2022/03/08 06:17:27;;;;;;;11.85;7.00;;;;;;;;;;5094022;28;20186;-62
2022/03/08 06:19:53;;;;;;;15.50;7.68;;;;;;;;;;5094007;28;20258;-62
2022/03/08 06:22:19;;;;;;;19.23;8.27;;;;;;;;;;5093780;28;20170;-61
2022/03/08 06:24:45;;;;;;;16.33;7.70;;;;;;;;;;5094194;28;20171;-60
2022/03/08 06:27:11;;;;;;;18.50;8.52;;;;;;;;;;5093868;28;20224;-60
2022/03/08 06:29:37;;;;;;;17.77;8.27;;;;;;;;;;5094119;28;20187;-60
2022/03/08 06:32:03;;;;;;;18.65;8.50;;;;;;;;;;5093778;28;20167;-60
2022/03/08 06:34:29;;;;;;;16.05;7.80;;;;;;;;;;5093817;28;20205;-61
2022/03/08 06:36:55;;;;;;;14.57;8.25;;;;;;;;;;5093219;28;20156;-60
2022/03/08 06:39:21;;;;;;;18.23;8.85;;;;;;;;;;5093952;28;20214;-60
2022/03/08 06:41:47;;;;;;;14.77;8.73;;;;;;;;;;5093434;28;20500;-60
2022/03/08 06:44:13;;;;;;;15.90;8.68;;;;;;;;;;5093667;28;20555;-60
2022/03/08 06:46:41;;;;;;;16.73;9.00;;;;;;;;;;5093772;28;20167;-60
2022/03/08 06:49:08;;;;;;;16.75;8.75;;;;;;;;;;5093725;28;20227;-61
2022/03/08 06:51:34;;;;;;;22.05;9.15;;;;;;;;;;5093705;28;20167;-60
2022/03/08 06:54:00;;;;;;;16.33;8.85;;;;;;;;;;5093342;28;20170;-60
2022/03/08 06:56:26;;;;;;;16.85;8.40;;;;;;;;;;5093418;28;20167;-61
2022/03/08 06:58:52;;;;;;;13.65;8.50;;;;;;;;;;5093313;28;20172;-61
2022/03/08 07:01:18;;;;;;;12.13;7.40;;;;;;;;;;5093313;28;20187;-61
2022/03/08 07:03:44;;;;;;;13.63;8.10;;;;;;;;;;5093590;28;20171;-60
2022/03/08 07:06:10;;;;;;;13.10;8.07;;;;;;;;;;5093406;28;20503;-60
2022/03/08 07:08:37;;;;;;;12.45;7.25;;;;;;;;;;5093192;28;20193;-61
2022/03/08 07:11:03;;;;;;;13.85;8.20;;;;;;;;;;5093763;28;20167;-60
2022/03/08 07:13:29;;;;;;;14.45;8.32;;;;;;;;;;5093295;28;20471;-60
2022/03/08 07:15:55;;;;;;;12.82;7.90;;;;;;;;;;5093160;28;20250;-60
2022/03/08 07:18:23;;;;;;;16.55;8.45;;;;;;;;;;5093150;28;20162;-60
2022/03/08 07:20:49;;;;;;;13.50;7.38;;;;;;;;;;5093628;28;20179;-60
2022/03/08 07:23:15;;;;;;;13.93;8.35;;;;;;;;;;5093146;28;20209;-61
2022/03/08 07:25:41;;;;;;;14.73;7.63;;;;;;;;;;5093402;28;20591;-60
2022/03/08 07:28:07;;;;;;;15.50;8.35;;;;;;;;;;5093190;28;20195;-60
2022/03/08 07:30:33;;;;;;;21.20;8.50;;;;;;;;;;5093262;28;20651;-60
2022/03/08 07:32:59;;;;;;;14.85;8.32;;;;;;;;;;5093583;28;20250;-61
2022/03/08 07:35:26;;;;;;;12.52;7.20;;;;;;;;;;5093545;28;20178;-60
2022/03/08 07:37:52;;;;;;;13.80;7.95;;;;;;;;;;5093160;28;20210;-60
2022/03/08 07:40:17;;;;;;;13.18;7.80;;;;;;;;;;5093163;28;20619;-60
2022/03/08 07:42:43;;;;;;;15.95;7.75;;;;;;;;;;5093365;28;20208;-60
2022/03/08 07:45:10;;;;;;;12.57;7.47;;;;;;;;;;5093735;28;20236;-60
2022/03/08 07:47:35;;;;;;;13.35;7.40;;;;;;;;;;5093759;28;20167;-60
2022/03/08 07:50:01;;;;;;;13.48;8.45;;;;;;;;;;5093693;28;20195;-60
2022/03/08 07:52:27;;;;;;;13.68;7.22;;;;;;;;;;5093956;28;20168;-60
2022/03/08 07:54:53;;;;;;;16.48;8.88;;;;;;;;;;5097041;28;20168;-61
2022/03/08 07:57:19;;;;;;;17.60;8.85;;;;;;;;;;5097055;28;20176;-62
2022/03/08 07:59:45;;;;;;;12.77;7.78;;;;;;;;;;5097118;28;20238;-61
2022/03/08 08:02:11;;;;;;;12.55;7.32;;;;;;;;;;5097380;28;20164;-60
2022/03/08 08:04:37;;;;;;;11.95;6.65;;;;;;;;;;5096991;28;20167;-61
2022/03/08 08:07:03;;;;;;;13.23;7.40;;;;;;;;;;5097087;28;20229;-59
2022/03/08 08:09:29;;;;;;;12.48;6.97;;;;;;;;;;5097133;28;20649;-61
2022/03/08 08:11:55;;;;;;;9.77;6.68;;;;;;;;;;5108757;28;20168;-60
2022/03/08 08:14:21;;;;;;;12.15;7.03;;;;;;;;;;5100506;28;20220;-59
2022/03/08 08:16:47;;;;;;;10.63;7.03;;;;;;;;;;5096401;28;20258;-61
2022/03/08 08:19:13;;;;;;;12.52;6.72;;;;;;;;;;5096488;28;20312;-62
2022/03/08 08:21:39;;;;;;;15.93;7.40;;;;;;;;;;5096394;28;20168;-62
2022/03/08 08:24:05;;;;;;;10.95;6.43;;;;;;;;;;5096284;28;20540;-60
2022/03/08 08:26:31;;;;;;;8.48;5.60;;;;;;;;;;5096762;28;20164;-62
2022/03/08 08:28:57;;;;;;;8.50;5.60;;;;;;;;;;5095928;28;20192;-62
2022/03/08 08:31:24;;;;;;;10.75;5.03;;;;;;;;;;5096042;28;20167;-62
2022/03/08 08:33:50;;;;;;;7.75;5.00;;;;;;;;;;5095928;28;20178;-62
2022/03/08 08:36:17;;;;;;;8.48;4.85;;;;;;;;;;5095638;28;20206;-60
2022/03/08 08:38:42;;;;;;;8.70;6.10;;;;;;;;;;5095605;28;20167;-62
2022/03/08 08:41:09;;;;;;;9.35;5.50;;;;;;;;;;5095954;28;20551;-61
2022/03/08 08:43:35;;;;;;;8.90;5.20;;;;;;;;;;5095518;28;20270;-61
2022/03/08 08:46:01;;;;;;;9.18;4.80;;;;;;;;;;5095673;28;20646;-61
2022/03/08 08:48:27;;;;;;;9.02;5.20;;;;;;;;;;5095454;28;20228;-61
2022/03/08 08:50:53;;;;;;;10.07;5.55;;;;;;;;;;5095764;28;20556;-61
2022/03/08 08:53:19;;;;;;;8.95;5.20;;;;;;;;;;5095463;28;20576;-61
2022/03/08 08:55:45;;;;;;;9.93;5.38;;;;;;;;;;5095403;28;20183;-61
2022/03/08 08:58:12;;;;;;;9.02;5.05;;;;;;;;;;5095650;28;20611;-61
2022/03/08 09:00:37;;;;;;;8.07;5.30;;;;;;;;;;5095532;28;20198;-61
2022/03/08 09:03:06;;;;;;;8.05;5.65;;;;;;;;;;5095418;28;20171;-61
2022/03/08 09:05:32;;;;;;;8.13;4.80;;;;;;;;;;5094365;28;20175;-61
2022/03/08 09:07:58;;;;;;;7.90;5.53;;;;;;;;;;5095570;28;20175;-61
2022/03/08 09:10:23;;;;;;;9.55;5.38;;;;;;;;;;5095391;28;20194;-61
2022/03/08 09:12:51;;;;;;;7.95;5.07;;;;;;;;;;5095138;28;20163;-61
2022/03/08 09:15:18;;;;;;;8.85;4.70;;;;;;;;;;5095294;28;20599;-61
2022/03/08 09:17:44;;;;;;;8.00;4.70;;;;;;;;;;5094955;28;20600;-61
2022/03/08 09:20:11;;;;;;;9.63;4.28;;;;;;;;;;5095264;28;20182;-61
2022/03/08 09:22:37;;;;;;;5.43;3.47;;;;;;;;;;5094814;28;20168;-60
2022/03/08 09:25:04;;;;;;;4.57;3.55;;;;;;;;;;5095011;28;20171;-61
2022/03/08 09:27:30;;;;;;;6.72;3.28;;;;;;;;;;5094862;28;20175;-61
2022/03/08 09:29:56;;;;;;;5.15;3.53;;;;;;;;;;5094576;28;20631;-61
2022/03/08 09:32:22;;;;;;;4.30;3.42;;;;;;;;;;5094707;28;20164;-61
2022/03/08 09:34:47;;;;;;;4.35;3.33;;;;;;;;;;5094650;28;20514;-61
2022/03/08 09:37:13;;;;;;;4.80;3.33;;;;;;;;;;5094672;28;20171;-61
2022/03/08 09:39:39;;;;;;;6.20;2.97;;;;;;;;;;5094529;28;20210;-61
2022/03/08 09:42:05;;;;;;;6.43;3.15;;;;;;;;;;5094860;28;20163;-61
2022/03/08 09:44:31;;;;;;;4.07;2.92;;;;;;;;;;5094491;28;20497;-62
2022/03/08 09:46:57;;;;;;;4.20;3.33;;;;;;;;;;5094815;28;20248;-61
2022/03/08 09:49:23;;;;;;;4.22;2.72;;;;;;;;;;5094207;28;20282;-61
2022/03/08 09:51:52;;;;;;;4.85;3.30;;;;;;;;;;5094333;28;20163;-61
2022/03/08 09:54:17;;;;;;;5.20;3.40;;;;;;;;;;5094591;28;20171;-61
2022/03/08 09:56:43;;;;;;;5.13;3.75;;;;;;;;;;5094353;28;20182;-61
2022/03/08 09:59:09;;;;;;;5.65;3.33;;;;;;;;;;5094570;28;20174;-61
2022/03/08 10:01:36;;;;;;;4.68;3.13;;;;;;;;;;5094986;28;20179;-62
2022/03/08 10:04:02;;;;;;;5.32;3.47;;;;;;;;;;5095359;28;20170;-62
2022/03/08 10:06:39;;;;;;;5.40;3.45;;;;;;;;;;5095963;28;20171;-62
2022/03/08 10:09:12;;;;;;;4.53;3.65;;;;;;;;;;5095938;28;20194;-63
2022/03/08 10:11:38;;;;;;;6.18;4.30;;;;;;;;;;5095884;28;20270;-62
2022/03/08 10:14:04;;;;;;;6.10;4.05;;;;;;;;;;5095342;28;20258;-62
2022/03/08 10:16:41;;;;;;;6.55;4.40;;;;;;;;;;5094012;28;20191;-62
2022/03/08 10:19:08;;;;;;;5.28;4.15;;;;;;;;;;5094158;28;20187;-61
2022/03/08 10:21:45;;;;;;;5.47;3.78;;;;;;;;;;5094342;28;20175;-62
2022/03/08 10:24:19;;;;;;;6.15;3.50;;;;;;;;;;5094811;28;20167;-61
2022/03/08 10:26:47;;;;;;;7.63;3.90;;;;;;;;;;5095142;28;20179;-62
2022/03/08 10:29:14;;;;;;;4.95;3.63;;;;;;;;;;5095637;28;20192;-62
2022/03/08 10:31:41;;;;;;;6.43;3.70;;;;;;;;;;5095916;28;20697;-62
2022/03/08 10:34:08;;;;;;;6.85;3.92;;;;;;;;;;5095999;28;20168;-62
2022/03/08 10:36:37;;;;;;;6.68;3.70;;;;;;;;;;5094022;28;20167;-61
2022/03/08 10:39:04;;;;;;;4.85;3.72;;;;;;;;;;5093783;28;20171;-62
2022/03/08 10:41:30;;;;;;;4.32;3.28;;;;;;;;;;5093295;28;20163;-62
2022/03/08 10:43:56;;;;;;;4.97;3.72;;;;;;;;;;5093889;28;20534;-62
2022/03/08 10:46:22;;;;;;;5.03;3.85;;;;;;;;;;5093580;28;20563;-62
2022/03/08 10:48:48;;;;;;;7.10;4.20;;;;;;;;;;5093380;28;20187;-62
2022/03/08 10:51:15;;;;;;;6.40;3.50;;;;;;;;;;5093392;28;20208;-65
2022/03/08 10:53:42;;;;;;;4.85;3.45;;;;;;;;;;5093626;28;20262;-65
2022/03/08 10:56:09;;;;;;;4.50;3.45;;;;;;;;;;5093521;28;20160;-65
2022/03/08 10:58:47;;;;;;;4.13;3.03;;;;;;;;;;5093474;28;20160;-65
2022/03/08 11:01:13;;;;;;;5.05;3.75;;;;;;;;;;5093037;28;20546;-65
2022/03/08 11:03:39;;;;;;;3.70;2.70;;;;;;;;;;5093507;28;20170;-65
2022/03/08 11:06:07;;;;;;;7.05;3.42;;;;;;;;;;5092205;28;20178;-66
2022/03/08 11:08:33;;;;;;;6.57;3.03;;;;;;;;;;5093534;28;20168;-67
2022/03/08 11:10:59;;;;;;;4.05;2.95;;;;;;;;;;5093326;28;20167;-65
2022/03/08 11:13:25;;;;;;;4.85;2.70;;;;;;;;;;5093146;28;20163;-64
2022/03/08 11:15:51;;;;;;;3.40;2.30;;;;;;;;;;5093223;28;20164;-63
2022/03/08 11:18:17;;;;;;;3.70;2.60;;;;;;;;;;5093194;28;20159;-63
2022/03/08 11:20:44;;;;;;;4.60;3.17;;;;;;;;;;5093119;28;20175;-64
2022/03/08 11:23:10;;;;;;;4.07;2.95;;;;;;;;;;5093286;28;20238;-65
2022/03/08 11:25:38;;;;;;;5.07;3.10;;;;;;;;;;5093030;28;20188;-65
2022/03/08 11:28:05;;;;;;;3.65;3.13;;;;;;;;;;5094610;28;20208;-64
2022/03/08 11:30:33;;;;;;;3.22;2.60;;;;;;;;;;5097011;28;20191;-65
2022/03/08 11:33:17;;;;;;;4.72;3.08;;;;;;;;;;5097671;28;20163;-65
2022/03/08 11:35:55;;;;;;;4.80;3.22;;;;;;;;;;5096859;28;20178;-65
2022/03/08 11:38:21;;;;;;;4.15;2.78;;;;;;;;;;5096905;28;20490;-64
2022/03/08 11:40:51;;;;;;;4.25;2.92;;;;;;;;;;5096862;28;20251;-65
2022/03/08 11:43:17;;;;;;;4.70;3.10;;;;;;;;;;5098831;28;20244;-65
2022/03/08 11:45:44;;;;;;;5.45;3.17;;;;;;;;;;5100215;28;20171;-65
2022/03/08 11:48:10;;;;;;;5.35;3.35;;;;;;;;;;5096858;28;20609;-64
2022/03/08 11:50:39;;;;;;;4.13;3.15;;;;;;;;;;5097140;28;20225;-65
2022/03/08 11:53:05;;;;;;;4.75;3.33;;;;;;;;;;5096986;28;20163;-65
2022/03/08 11:55:32;;;;;;;4.97;3.80;;;;;;;;;;5097128;28;20171;-65
2022/03/08 11:57:59;;;;;;;4.85;3.33;;;;;;;;;;5096588;28;20210;-64
2022/03/08 12:00:31;;;;;;;4.97;2.88;;;;;;;;;;5096447;28;20199;-64
2022/03/08 12:02:58;;;;;;;6.20;3.17;;;;;;;;;;5096753;28;20254;-65
2022/03/08 12:05:39;;;;;;;4.88;2.78;;;;;;;;;;5096757;28;20167;-65
2022/03/08 12:08:23;;;;;;;4.10;2.88;;;;;;;;;;5096494;28;20201;-65
2022/03/08 12:10:52;;;;;;;3.70;2.78;;;;;;;;;;5096602;28;20221;-65
2022/03/08 12:13:23;;;;;;;5.00;2.88;;;;;;;;;;5096684;28;20202;-65
2022/03/08 12:16:10;;;;;;;3.85;2.55;;;;;;;;;;5096355;28;20155;-65
2022/03/08 12:18:37;;;;;;;5.78;2.60;;;;;;;;;;5096305;28;20224;-65
2022/03/08 12:21:15;;;;;;;5.28;2.22;;;;;;;;;;5095291;28;20167;-65
2022/03/08 12:23:52;;;;;;;3.05;2.25;;;;;;;;;;5096236;28;20159;-65
2022/03/08 12:26:36;;;;;;;2.75;2.13;;;;;;;;;;5096093;28;20246;-67
2022/03/08 12:29:10;;;;;;;3.45;2.13;;;;;;;;;;5096380;28;20202;-65
2022/03/08 12:31:54;;;;;;;3.15;2.40;;;;;;;;;;5096133;28;20293;-64
2022/03/08 12:34:35;;;;;;;3.35;2.13;;;;;;;;;;5096440;28;20174;-65
2022/03/08 12:37:02;;;;;;;4.00;2.70;;;;;;;;;;5096134;28;20147;-65
2022/03/08 12:39:47;;;;;;;3.05;2.17;;;;;;;;;;5095829;28;20168;-65
2022/03/08 12:42:16;;;;;;;5.38;2.40;;;;;;;;;;5095929;28;20531;-65
2022/03/08 12:44:49;;;;;;;3.63;2.50;;;;;;;;;;5095762;28;20164;-65
2022/03/08 12:47:15;;;;;;;2.78;2.17;;;;;;;;;;5095682;28;20151;-65
2022/03/08 12:49:42;;;;;;;4.15;2.40;;;;;;;;;;5095725;28;20201;-65
2022/03/08 12:52:09;;;;;;;7.45;2.55;;;;;;;;;;5095566;28;20168;-65
2022/03/08 12:54:36;;;;;;;5.57;2.55;;;;;;;;;;5096272;28;20563;-62
2022/03/08 12:57:03;;;;;;;5.72;3.60;;;;;;;;;;5095948;28;20159;-62
2022/03/08 12:59:29;;;;;;;6.75;4.78;;;;;;;;;;5096125;28;20198;-62
2022/03/08 13:02:06;;;;;;;8.07;4.43;;;;;;;;;;5095853;28;20545;-62
2022/03/08 13:04:32;;;;;;;7.43;4.68;;;;;;;;;;5096128;28;20252;-63
2022/03/08 13:07:15;;;;;;;6.13;4.13;;;;;;;;;;5095712;28;20188;-62
2022/03/08 13:09:55;;;;;;;7.13;4.95;;;;;;;;;;5096024;28;20205;-62
2022/03/08 13:12:22;;;;;;;5.30;4.45;;;;;;;;;;5096027;28;20182;-62
2022/03/08 13:15:05;;;;;;;6.72;4.70;;;;;;;;;;5095718;28;20242;-62
2022/03/08 13:17:31;;;;;;;7.07;4.50;;;;;;;;;;5095964;28;20568;-62
2022/03/08 13:19:57;;;;;;;6.60;4.47;;;;;;;;;;5095816;28;20626;-62
2022/03/08 13:22:23;;;;;;;6.78;5.07;;;;;;;;;;5096282;28;20195;-62
2022/03/08 13:25:08;;;;;;;7.43;4.43;;;;;;;;;;5096064;28;20179;-62
2022/03/08 13:27:52;;;;;;;6.32;4.53;;;;;;;;;;5096222;28;20179;-61
2022/03/08 13:30:23;;;;;;;7.30;5.00;;;;;;;;;;5095668;28;20679;-61
2022/03/08 13:32:49;;;;;;;8.45;5.13;;;;;;;;;;5095929;28;20167;-62
2022/03/08 13:35:16;;;;;;;6.90;4.65;;;;;;;;;;5095549;28;20171;-61
2022/03/08 13:37:49;;;;;;;7.88;5.07;;;;;;;;;;5095375;28;20587;-61
2022/03/08 13:40:25;;;;;;;9.43;4.90;;;;;;;;;;5095324;28;20590;-61
2022/03/08 13:42:51;;;;;;;6.72;4.90;;;;;;;;;;5095558;28;20167;-62
2022/03/08 13:45:17;;;;;;;6.70;4.70;;;;;;;;;;5095201;28;20530;-62
2022/03/08 13:47:43;;;;;;;6.13;4.35;;;;;;;;;;5095266;28;20196;-61
2022/03/08 13:50:09;;;;;;;5.82;4.28;;;;;;;;;;5094246;28;20187;-61
2022/03/08 13:52:35;;;;;;;7.22;4.00;;;;;;;;;;5094724;28;20163;-61
2022/03/08 13:55:01;;;;;;;6.13;4.10;;;;;;;;;;5094880;28;20163;-61
2022/03/08 13:57:27;;;;;;;5.38;3.58;;;;;;;;;;5094715;28;20164;-61
2022/03/08 13:59:53;;;;;;;4.30;3.28;;;;;;;;;;5094647;28;20635;-61
2022/03/08 14:02:22;;;;;;;5.78;3.15;;;;;;;;;;5094398;28;20254;-61
2022/03/08 14:04:48;;;;;;;5.43;2.90;;;;;;;;;;5094372;28;20170;-61
2022/03/08 14:07:20;;;;;;;3.97;2.20;;;;;;;;;;5094120;28;20159;-61
2022/03/08 14:10:00;;;;;;;3.63;2.25;;;;;;;;;;5095110;28;20187;-62
2022/03/08 14:12:41;;;;;;;3.03;2.00;;;;;;;;;;5094782;28;20586;-62
2022/03/08 14:15:07;;;;;;;2.85;2.38;;;;;;;;;;5094880;28;20485;-62
2022/03/08 14:17:33;;;;;;;4.70;2.05;;;;;;;;;;5094447;28;20172;-62
2022/03/08 14:20:12;;;;;;;3.38;2.08;;;;;;;;;;5094072;28;20167;-62
2022/03/08 14:22:38;;;;;;;1.55;1.30;;;;;;;;;;5094582;28;20167;-62
2022/03/08 14:25:04;;;;;;;1.42;1.15;;;;;;;;;;5095035;28;20274;-62
2022/03/08 14:27:30;;;;;;;1.77;1.40;;;;;;;;;;5094518;28;20175;-62
2022/03/08 14:30:00;;;;;;;1.10;1.00;;;;;;;;;;5094929;28;20191;-62
2022/03/08 14:32:33;;;;;;;1.08;0.98;;;;;;;;;;5094259;28;20251;-62
2022/03/08 14:35:12;;;;;;;3.28;1.05;;;;;;;;;;5094487;28;20155;-62
2022/03/08 14:37:38;;;;;;;1.17;0.80;;;;;;;;;;5094538;28;20163;-62